createdAt,value
2022-12-22T00:01:37.562Z,76.40
2022-12-22T00:05:02.429Z,76.70
2022-12-22T00:08:23.433Z,76.50
2022-12-22T00:11:44.969Z,76.90
2022-12-22T00:15:08.468Z,76.60
2022-12-22T00:18:33.950Z,76.90
2022-12-22T00:21:55.179Z,77.30
2022-12-22T00:25:16.095Z,77.50
2022-12-22T00:28:37.003Z,77.70
2022-12-22T00:31:59.417Z,77.80
2022-12-22T00:35:20.242Z,77.90
2022-12-22T00:38:40.935Z,78.20
2022-12-22T00:42:02.036Z,78.80
2022-12-22T00:45:23.426Z,77.90
2022-12-22T00:48:45.824Z,77.90
2022-12-22T00:52:06.736Z,77.90
2022-12-22T00:55:34.280Z,77.80
2022-12-22T00:58:56.235Z,77.80
2022-12-22T01:02:18.136Z,77.80
2022-12-22T01:05:42.126Z,77.60
2022-12-22T01:09:03.298Z,77.50
2022-12-22T01:12:33.157Z,77.40
2022-12-22T01:15:54.097Z,77.40
2022-12-22T01:19:14.843Z,77.30
2022-12-22T01:22:39.669Z,77.30
2022-12-22T01:26:00.347Z,77.20
2022-12-22T01:29:21.094Z,77.20
2022-12-22T01:32:42.012Z,77.80
2022-12-22T01:36:02.629Z,77.10
2022-12-22T01:39:25.348Z,77.10
2022-12-22T01:42:46.663Z,76.50
2022-12-22T01:46:07.386Z,77.20
2022-12-22T01:49:34.809Z,77.40
2022-12-22T01:52:55.580Z,77.50
2022-12-22T01:56:19.765Z,77.60
2022-12-22T01:59:40.632Z,77.80
2022-12-22T02:03:01.314Z,77.60
2022-12-22T02:06:35.268Z,77.20
2022-12-22T02:10:13.096Z,77.20
2022-12-22T02:13:52.184Z,77.10
2022-12-22T02:17:24.227Z,76.90
2022-12-22T02:20:59.758Z,76.70
2022-12-22T02:24:41.713Z,76.50
2022-12-22T02:28:05.764Z,76.50
2022-12-22T02:31:26.582Z,76.60
2022-12-22T02:34:48.140Z,76.40
2022-12-22T02:38:21.745Z,76.40
2022-12-22T02:41:51.909Z,76.80
2022-12-22T02:45:30.180Z,76.20
2022-12-22T02:49:04.234Z,76.20
2022-12-22T02:52:32.572Z,76.30
2022-12-22T02:55:53.700Z,76.60
2022-12-22T02:59:15.155Z,76.60
2022-12-22T03:02:37.876Z,76.60
2022-12-22T03:05:58.827Z,76.70
2022-12-22T03:09:19.743Z,76.60
2022-12-22T03:12:40.726Z,76.60
2022-12-22T03:16:01.667Z,76.60
2022-12-22T03:19:23.860Z,76.70
2022-12-22T03:22:44.683Z,77.60
2022-12-22T03:25:52.944Z,77.00
2022-12-22T03:28:56.644Z,77.00
2022-12-22T03:31:59.848Z,77.00
2022-12-22T03:35:04.935Z,76.90
2022-12-22T03:38:07.972Z,77.00
2022-12-22T03:41:31.888Z,77.10
2022-12-22T03:44:52.841Z,77.00
2022-12-22T03:47:56.043Z,76.90
2022-12-22T03:51:00.510Z,76.70
2022-12-22T03:54:03.742Z,76.70
2022-12-22T03:57:06.828Z,76.70
2022-12-22T04:00:11.137Z,76.60
2022-12-22T04:03:14.387Z,76.70
2022-12-22T04:06:20.294Z,76.60
2022-12-22T04:09:24.741Z,76.70
2022-12-22T04:12:45.524Z,76.50
2022-12-22T04:15:48.539Z,76.50
2022-12-22T04:18:52.228Z,76.50
2022-12-22T04:21:57.036Z,76.70
2022-12-22T04:25:00.136Z,76.80
2022-12-22T04:28:03.750Z,77.40
2022-12-22T04:31:06.892Z,77.10
2022-12-22T04:34:10.276Z,77.20
2022-12-22T04:37:17.570Z,77.20
2022-12-22T04:40:21.695Z,77.10
2022-12-22T04:43:24.781Z,77.20
2022-12-22T04:46:27.889Z,77.30
2022-12-22T04:49:31.020Z,77.40
2022-12-22T04:52:35.583Z,77.50
2022-12-22T04:55:38.714Z,77.50
2022-12-22T04:58:41.748Z,77.40
2022-12-22T05:01:44.952Z,77.40
2022-12-22T05:04:48.151Z,77.40
2022-12-22T05:07:52.574Z,77.30
2022-12-22T05:10:55.580Z,77.30
2022-12-22T05:14:03.513Z,77.20
2022-12-22T05:17:10.129Z,77.30
2022-12-22T05:20:13.503Z,77.40
2022-12-22T05:23:17.938Z,77.30
2022-12-22T05:26:21.539Z,77.40
2022-12-22T05:29:26.078Z,78.00
2022-12-22T05:32:29.283Z,77.40
2022-12-22T05:35:33.562Z,77.30
2022-12-22T05:38:38.478Z,77.40
2022-12-22T05:41:41.381Z,77.60
2022-12-22T05:44:44.467Z,77.60
2022-12-22T05:47:51.083Z,77.20
2022-12-22T05:50:54.068Z,77.00
2022-12-22T05:53:59.029Z,77.10
2022-12-22T05:57:02.085Z,77.00
2022-12-22T06:00:08.454Z,77.20
2022-12-22T06:03:11.677Z,76.80
2022-12-22T06:06:14.773Z,76.90
2022-12-22T06:09:19.249Z,76.90
2022-12-22T06:12:22.329Z,77.00
2022-12-22T06:15:25.398Z,77.10
2022-12-22T06:18:28.679Z,77.30
2022-12-22T06:21:31.782Z,77.20
2022-12-22T06:24:36.356Z,77.70
2022-12-22T06:27:39.487Z,77.00
2022-12-22T06:30:42.621Z,77.10
2022-12-22T06:33:46.396Z,77.10
2022-12-22T06:36:50.314Z,77.00
2022-12-22T06:39:55.597Z,77.00
2022-12-22T06:43:11.115Z,77.10
2022-12-22T06:46:14.353Z,77.10
2022-12-22T06:49:17.515Z,77.00
2022-12-22T06:52:20.544Z,77.00
2022-12-22T06:55:24.933Z,76.50
2022-12-22T06:58:28.033Z,76.90
2022-12-22T07:01:31.551Z,76.90
2022-12-22T07:04:34.813Z,76.90
2022-12-22T07:07:37.905Z,77.00
2022-12-22T07:11:00.732Z,77.00
2022-12-22T07:14:03.760Z,77.00
2022-12-22T07:17:06.785Z,77.10
2022-12-22T07:20:11.556Z,77.10
2022-12-22T07:23:14.836Z,77.10
2022-12-22T07:26:19.354Z,77.00
2022-12-22T07:29:22.371Z,77.00
2022-12-22T07:32:26.186Z,77.10
2022-12-22T07:35:29.225Z,76.90
2022-12-22T07:38:36.042Z,77.00
2022-12-22T07:41:58.262Z,77.00
2022-12-22T07:45:01.209Z,77.00
2022-12-22T07:48:26.395Z,77.00
2022-12-22T07:51:32.582Z,76.90
2022-12-22T07:54:41.705Z,76.90
2022-12-22T07:57:46.945Z,76.90
2022-12-22T08:00:50.053Z,76.90
2022-12-22T08:03:53.524Z,76.90
2022-12-22T08:06:56.696Z,77.50
2022-12-22T08:10:00.016Z,77.00
2022-12-22T08:13:04.614Z,76.90
2022-12-22T08:16:10.706Z,76.90
2022-12-22T08:19:13.847Z,77.10
2022-12-22T08:22:16.869Z,77.40
2022-12-22T08:25:20.044Z,76.80
2022-12-22T08:28:25.373Z,76.80
2022-12-22T08:31:30.926Z,76.90
2022-12-22T08:34:34.293Z,77.00
2022-12-22T08:37:42.877Z,77.20
2022-12-22T08:40:46.724Z,77.00
2022-12-22T08:43:51.213Z,77.00
2022-12-22T08:46:56.763Z,77.00
2022-12-22T08:49:59.834Z,77.80
2022-12-22T08:53:04.615Z,77.20
2022-12-22T08:56:08.518Z,77.80
2022-12-22T08:59:14.210Z,77.10
2022-12-22T09:02:17.559Z,76.90
2022-12-22T09:05:20.772Z,76.40
2022-12-22T09:08:23.802Z,76.90
2022-12-22T09:11:27.743Z,76.90
2022-12-22T09:14:33.513Z,77.00
2022-12-22T09:17:37.752Z,77.00
2022-12-22T09:20:40.720Z,77.10
2022-12-22T09:23:44.043Z,77.00
2022-12-22T09:26:47.187Z,77.10
2022-12-22T09:29:51.651Z,77.10
2022-12-22T09:32:57.489Z,77.10
2022-12-22T09:36:01.009Z,77.20
2022-12-22T09:39:07.461Z,77.20
2022-12-22T09:42:16.415Z,77.20
2022-12-22T09:45:20.981Z,77.00
2022-12-22T09:48:30.250Z,77.00
2022-12-22T09:51:39.846Z,77.00
2022-12-22T09:54:42.834Z,76.80
2022-12-22T09:57:45.874Z,76.90
2022-12-22T10:00:59.798Z,76.70
2022-12-22T10:04:13.894Z,76.60
2022-12-22T10:07:27.588Z,76.60
2022-12-22T10:10:32.815Z,76.80
2022-12-22T10:13:36.008Z,76.80
2022-12-22T10:16:40.364Z,76.70
2022-12-22T10:19:44.172Z,76.70
2022-12-22T10:22:50.736Z,77.20
2022-12-22T10:29:35.243Z,76.90
2022-12-22T10:32:39.672Z,76.80
2022-12-22T10:35:52.083Z,77.00
2022-12-22T10:39:03.003Z,77.00
2022-12-22T10:42:13.326Z,77.60
2022-12-22T10:45:23.402Z,77.10
2022-12-22T10:48:30.543Z,77.00
2022-12-22T10:51:34.172Z,77.00
2022-12-22T10:54:38.154Z,77.00
2022-12-22T10:57:41.316Z,77.00
2022-12-22T11:00:45.899Z,76.70
2022-12-22T11:03:50.485Z,77.00
2022-12-22T11:06:57.800Z,76.90
2022-12-22T11:10:00.888Z,76.70
2022-12-22T11:13:29.648Z,76.60
2022-12-22T11:16:45.581Z,76.60
2022-12-22T11:20:11.096Z,76.70
2022-12-22T11:23:26.757Z,76.50
2022-12-22T11:26:46.685Z,76.00
2022-12-22T11:30:08.790Z,75.90
2022-12-22T11:33:28.514Z,75.70
2022-12-22T11:36:54.305Z,75.40
2022-12-22T11:40:09.712Z,75.70
2022-12-22T11:43:26.278Z,75.30
2022-12-22T11:46:44.445Z,75.40
2022-12-22T11:50:58.573Z,75.50
2022-12-22T11:54:18.792Z,75.50
2022-12-22T11:57:35.574Z,75.60
2022-12-22T12:04:37.134Z,75.80
2022-12-22T12:07:46.448Z,75.90
2022-12-22T12:10:57.437Z,76.30
2022-12-22T12:14:16.903Z,76.50
2022-12-22T12:17:36.304Z,76.50
2022-12-22T12:20:54.543Z,76.60
2022-12-22T12:24:33.178Z,76.40
2022-12-22T12:27:56.688Z,76.10
2022-12-22T12:31:01.936Z,76.10
2022-12-22T12:34:10.442Z,76.00
2022-12-22T12:37:26.587Z,75.60
2022-12-22T12:40:41.001Z,75.30
2022-12-22T12:43:49.093Z,75.10
2022-12-22T12:47:05.065Z,74.90
2022-12-22T12:50:32.995Z,74.70
2022-12-22T12:53:35.943Z,74.60
2022-12-22T12:57:00.478Z,74.70
2022-12-22T13:00:06.111Z,74.70
2022-12-22T13:03:30.697Z,74.90
2022-12-22T13:06:54.387Z,75.50
2022-12-22T13:10:25.881Z,75.10
2022-12-22T13:13:55.382Z,75.30
2022-12-22T13:17:42.203Z,75.60
2022-12-22T13:20:54.273Z,76.20
2022-12-22T13:27:28.033Z,76.20
2022-12-22T13:30:32.609Z,76.40
2022-12-22T13:33:39.951Z,76.30
2022-12-22T13:36:44.324Z,76.30
2022-12-22T13:40:12.902Z,76.10
2022-12-22T13:43:21.352Z,75.90
2022-12-22T13:46:24.958Z,75.80
2022-12-22T13:50:06.500Z,75.60
2022-12-22T13:52:58.299Z,75.40
2022-12-22T13:56:01.967Z,75.00
2022-12-22T13:59:06.566Z,74.70
2022-12-22T14:02:19.897Z,75.10
2022-12-22T14:05:32.058Z,74.90
2022-12-22T14:08:35.160Z,74.80
2022-12-22T14:11:38.440Z,74.80
2022-12-22T14:14:44.151Z,74.90
2022-12-22T14:17:52.685Z,74.80
2022-12-22T14:20:59.362Z,74.90
2022-12-22T14:24:04.671Z,74.90
2022-12-22T14:27:17.730Z,74.80
2022-12-22T14:30:24.430Z,74.90
2022-12-22T14:33:32.326Z,74.90
2022-12-22T14:36:45.796Z,74.90
2022-12-22T14:39:58.763Z,75.00
2022-12-22T14:43:06.088Z,75.50
2022-12-22T14:46:12.138Z,75.10
2022-12-22T14:49:20.141Z,75.10
2022-12-22T14:52:36.233Z,75.10
2022-12-22T14:55:43.489Z,75.40
2022-12-22T14:58:49.099Z,75.60
2022-12-22T15:02:00.030Z,75.60
2022-12-22T15:05:26.691Z,75.60
2022-12-22T15:08:42.640Z,75.70
2022-12-22T15:11:49.465Z,75.60
2022-12-22T15:14:52.648Z,75.60
2022-12-22T15:17:55.835Z,75.90
2022-12-22T15:20:59.282Z,75.70
2022-12-22T15:24:05.063Z,75.90
2022-12-22T15:27:08.051Z,76.10
2022-12-22T15:30:14.588Z,76.20
2022-12-22T15:33:20.288Z,76.30
2022-12-22T15:36:23.377Z,76.40
2022-12-22T15:39:27.712Z,77.00
2022-12-22T15:42:30.648Z,76.50
2022-12-22T15:45:36.117Z,76.40
2022-12-22T15:48:40.795Z,76.50
2022-12-22T15:51:46.026Z,76.70
2022-12-22T15:54:50.603Z,76.70
2022-12-22T15:57:58.215Z,77.00
2022-12-22T16:01:01.642Z,77.20
2022-12-22T16:04:04.840Z,77.20
2022-12-22T16:07:10.823Z,77.30
2022-12-22T16:10:26.649Z,77.30
2022-12-22T16:13:30.888Z,77.30
2022-12-22T16:16:35.714Z,77.10
2022-12-22T16:19:40.077Z,77.20
2022-12-22T16:22:44.212Z,77.30
2022-12-22T16:25:55.460Z,77.30
2022-12-22T16:29:02.498Z,77.70
2022-12-22T16:32:17.798Z,77.30
2022-12-22T16:35:25.177Z,77.60
2022-12-22T16:38:29.284Z,77.50
2022-12-22T16:41:35.473Z,77.50
2022-12-22T16:48:06.717Z,77.70
2022-12-22T16:51:19.663Z,77.60
2022-12-22T16:54:24.576Z,77.70
2022-12-22T16:57:29.014Z,77.70
2022-12-22T17:00:36.968Z,77.60
2022-12-22T17:03:42.454Z,77.50
2022-12-22T17:06:48.858Z,77.50
2022-12-22T17:09:57.189Z,77.50
2022-12-22T17:13:04.178Z,77.50
2022-12-22T17:16:07.762Z,77.50
2022-12-22T17:19:12.750Z,77.80
2022-12-22T17:22:26.374Z,77.40
2022-12-22T17:25:32.020Z,77.40
2022-12-22T17:28:39.456Z,77.30
2022-12-22T17:31:43.065Z,77.30
2022-12-22T17:34:48.729Z,77.30
2022-12-22T17:37:54.960Z,77.40
2022-12-22T17:40:58.813Z,77.80
2022-12-22T17:44:03.298Z,77.40
2022-12-22T17:47:06.434Z,77.50
2022-12-22T17:50:17.276Z,77.50
2022-12-22T17:53:22.121Z,77.60
2022-12-22T17:56:28.348Z,77.60
2022-12-22T17:59:32.926Z,78.00
2022-12-22T18:02:36.436Z,77.60
2022-12-22T18:05:45.336Z,77.60
2022-12-22T18:08:49.327Z,77.60
2022-12-22T18:11:54.008Z,77.60
2022-12-22T18:14:58.931Z,77.70
2022-12-22T18:18:01.854Z,77.70
2022-12-22T18:21:07.012Z,77.70
2022-12-22T18:24:17.333Z,77.80
2022-12-22T18:27:21.138Z,77.80
2022-12-22T18:30:29.511Z,77.70
2022-12-22T18:33:33.294Z,77.70
2022-12-22T18:36:38.441Z,77.70
2022-12-22T18:39:43.891Z,77.60
2022-12-22T18:42:47.253Z,78.20
2022-12-22T18:45:51.929Z,77.60
2022-12-22T18:48:56.685Z,77.60
2022-12-22T18:52:04.646Z,77.60
2022-12-22T18:55:17.835Z,77.60
2022-12-22T18:58:21.304Z,77.60
2022-12-22T19:01:28.014Z,77.70
2022-12-22T19:04:31.596Z,77.70
2022-12-22T19:07:34.875Z,77.50
2022-12-22T19:10:42.016Z,77.70
2022-12-22T19:13:49.413Z,77.80
2022-12-22T19:16:55.877Z,77.70
2022-12-22T19:19:59.647Z,77.60
2022-12-22T19:23:03.051Z,77.50
2022-12-22T19:26:09.191Z,77.50
2022-12-22T19:29:18.115Z,77.50
2022-12-22T19:32:27.072Z,77.70
2022-12-22T19:35:33.019Z,77.40
2022-12-22T19:38:38.031Z,77.50
2022-12-22T19:41:46.771Z,77.70
2022-12-22T19:44:50.534Z,77.40
2022-12-22T19:47:57.154Z,77.40
2022-12-22T19:51:01.469Z,76.80
2022-12-22T19:54:04.792Z,77.20
2022-12-22T19:57:17.021Z,77.20
2022-12-22T20:00:25.172Z,77.20
2022-12-22T20:03:30.608Z,77.10
2022-12-22T20:06:34.044Z,76.60
2022-12-22T20:09:37.436Z,77.10
2022-12-22T20:12:45.738Z,77.10
2022-12-22T20:15:50.162Z,77.00
2022-12-22T20:18:55.664Z,77.00
2022-12-22T20:22:07.909Z,77.00
2022-12-22T20:25:19.631Z,77.20
2022-12-22T20:28:29.135Z,77.00
2022-12-22T20:31:33.050Z,77.00
2022-12-22T20:34:40.260Z,76.90
2022-12-22T20:37:47.533Z,77.00
2022-12-22T20:40:55.436Z,76.90
2022-12-22T20:44:00.544Z,77.20
2022-12-22T20:47:20.235Z,77.00
2022-12-22T20:50:35.445Z,77.00
2022-12-22T20:53:39.593Z,76.90
2022-12-22T20:56:47.603Z,77.00
2022-12-22T20:59:59.079Z,77.00
2022-12-22T21:03:05.711Z,77.00
2022-12-22T21:06:27.121Z,77.10
2022-12-22T21:09:31.291Z,77.00
2022-12-22T21:12:41.013Z,76.90
2022-12-22T21:15:47.455Z,77.00
2022-12-22T21:18:52.462Z,76.30
2022-12-22T21:21:56.873Z,76.40
2022-12-22T21:25:00.216Z,76.50
2022-12-22T21:28:05.511Z,76.70
2022-12-22T21:31:09.318Z,77.20
2022-12-22T21:34:16.218Z,77.00
2022-12-22T21:37:21.970Z,77.00
2022-12-22T21:40:30.005Z,77.10
2022-12-22T21:43:33.937Z,77.10
2022-12-22T21:46:41.035Z,77.10
2022-12-22T21:49:47.648Z,77.10
2022-12-22T21:52:55.801Z,77.20
2022-12-22T21:55:59.027Z,77.10
2022-12-22T21:59:04.310Z,77.20
2022-12-22T22:02:18.325Z,77.10
2022-12-22T22:05:29.697Z,77.10
2022-12-22T22:08:34.574Z,77.30
2022-12-22T22:11:58.758Z,77.30
2022-12-22T22:15:01.890Z,77.40
2022-12-22T22:18:07.432Z,77.30
2022-12-22T22:21:13.424Z,77.20
2022-12-22T22:24:18.004Z,77.10
2022-12-22T22:27:21.383Z,76.90
2022-12-22T22:30:27.156Z,76.90
2022-12-22T22:33:30.323Z,76.90
2022-12-22T22:36:33.339Z,77.10
2022-12-22T22:39:37.828Z,77.30
2022-12-22T22:42:41.845Z,76.90
2022-12-22T22:45:47.417Z,76.90
2022-12-22T22:48:51.964Z,76.80
2022-12-22T22:51:55.143Z,76.80
2022-12-22T22:54:59.532Z,76.80
2022-12-22T22:58:02.579Z,76.80
2022-12-22T23:01:06.871Z,76.80
2022-12-22T23:04:10.082Z,76.50
2022-12-22T23:07:13.776Z,76.80
2022-12-22T23:10:18.404Z,76.90
2022-12-22T23:13:21.767Z,76.80
2022-12-22T23:16:29.563Z,76.70
2022-12-22T23:19:36.859Z,76.70
2022-12-22T23:22:40.229Z,76.80
2022-12-22T23:25:45.443Z,76.60
2022-12-22T23:28:49.450Z,76.60
2022-12-22T23:31:52.647Z,76.50
2022-12-22T23:34:55.919Z,76.40
2022-12-22T23:37:59.409Z,76.20
2022-12-22T23:41:06.561Z,76.40
2022-12-22T23:44:09.994Z,76.40
2022-12-22T23:47:13.184Z,76.30
2022-12-22T23:50:17.372Z,76.20
2022-12-22T23:53:20.428Z,76.10
2022-12-22T23:56:24.998Z,76.00
2022-12-22T23:59:29.016Z,76.10
